sensor_id;sensor_type;location;lat;lon;timestamp;pressure;altitude;pressure_sealevel;temperature;humidity
66164;BME280;52962;51.088;3.096;2023-11-18T00:00:23;102050.19;;;9.29;100.00
66164;BME280;52962;51.088;3.096;2023-11-18T00:02:52;102050.25;;;9.30;100.00
66164;BME280;52962;51.088;3.096;2023-11-18T00:05:20;102044.22;;;9.33;100.00
66164;BME280;52962;51.088;3.096;2023-11-18T00:07:50;102048.66;;;9.34;100.00
66164;BME280;52962;51.088;3.096;2023-11-18T00:10:18;102049.41;;;9.31;100.00
66164;BME280;52962;51.088;3.096;2023-11-18T00:12:47;102041.59;;;9.33;100.00
66164;BME280;52962;51.088;3.096;2023-11-18T00:15:18;102032.81;;;9.32;100.00
66164;BME280;52962;51.088;3.096;2023-11-18T00:17:46;102036.34;;;9.33;100.00
66164;BME280;52962;51.088;3.096;2023-11-18T00:20:15;102042.69;;;9.38;100.00
66164;BME280;52962;51.088;3.096;2023-11-18T00:22:43;102042.69;;;9.38;100.00
66164;BME280;52962;51.088;3.096;2023-11-18T00:25:11;102038.38;;;9.19;100.00
66164;BME280;52962;51.088;3.096;2023-11-18T00:27:41;102043.41;;;9.34;100.00
66164;BME280;52962;51.088;3.096;2023-11-18T00:30:10;102042.75;;;9.39;100.00
66164;BME280;52962;51.088;3.096;2023-11-18T00:32:40;102042.81;;;9.41;100.00
66164;BME280;52962;51.088;3.096;2023-11-18T00:35:09;102045.44;;;9.41;100.00
66164;BME280;52962;51.088;3.096;2023-11-18T00:37:38;102048.91;;;9.40;100.00
66164;BME280;52962;51.088;3.096;2023-11-18T00:40:06;102047.00;;;9.36;100.00
66164;BME280;52962;51.088;3.096;2023-11-18T00:42:35;102045.19;;;9.35;100.00
66164;BME280;52962;51.088;3.096;2023-11-18T00:45:05;102050.47;;;9.35;100.00
66164;BME280;52962;51.088;3.096;2023-11-18T00:47:34;102039.94;;;9.35;100.00
66164;BME280;52962;51.088;3.096;2023-11-18T00:50:04;102037.25;;;9.33;100.00
66164;BME280;52962;51.088;3.096;2023-11-18T00:52:36;102039.75;;;9.30;100.00
66164;BME280;52962;51.088;3.096;2023-11-18T00:55:06;102031.09;;;9.33;100.00
66164;BME280;52962;51.088;3.096;2023-11-18T00:57:35;102020.66;;;9.34;100.00
66164;BME280;52962;51.088;3.096;2023-11-18T01:00:07;102016.28;;;9.35;100.00
66164;BME280;52962;51.088;3.096;2023-11-18T01:02:36;102013.75;;;9.38;100.00
66164;BME280;52962;51.088;3.096;2023-11-18T01:05:07;102010.22;;;9.37;100.00
66164;BME280;52962;51.088;3.096;2023-11-18T01:07:38;102005.94;;;9.39;100.00
66164;BME280;52962;51.088;3.096;2023-11-18T01:10:07;102000.69;;;9.39;100.00
66164;BME280;52962;51.088;3.096;2023-11-18T01:12:37;102002.41;;;9.39;100.00
66164;BME280;52962;51.088;3.096;2023-11-18T01:15:06;101994.59;;;9.40;100.00
66164;BME280;52962;51.088;3.096;2023-11-18T01:17:37;101987.66;;;9.42;100.00
66164;BME280;52962;51.088;3.096;2023-11-18T01:20:08;101981.56;;;9.43;100.00
66164;BME280;52962;51.088;3.096;2023-11-18T01:22:38;101987.72;;;9.44;100.00
66164;BME280;52962;51.088;3.096;2023-11-18T01:25:08;101989.66;;;9.48;100.00
66164;BME280;52962;51.088;3.096;2023-11-18T01:27:36;101995.81;;;9.48;100.00
66164;BME280;52962;51.088;3.096;2023-11-18T01:30:06;101998.50;;;9.50;100.00
66164;BME280;52962;51.088;3.096;2023-11-18T01:32:34;102008.25;;;9.52;100.00
66164;BME280;52962;51.088;3.096;2023-11-18T01:35:04;102008.47;;;9.57;100.00
66164;BME280;52962;51.088;3.096;2023-11-18T01:37:34;102004.81;;;9.54;100.00
66164;BME280;52962;51.088;3.096;2023-11-18T01:40:04;102006.78;;;9.59;100.00
66164;BME280;52962;51.088;3.096;2023-11-18T01:42:34;101998.28;;;9.65;100.00
66164;BME280;52962;51.088;3.096;2023-11-18T01:45:04;102003.66;;;9.68;100.00
66164;BME280;52962;51.088;3.096;2023-11-18T01:47:40;102002.75;;;9.67;100.00
66164;BME280;52962;51.088;3.096;2023-11-18T01:50:10;101995.84;;;9.69;100.00
66164;BME280;52962;51.088;3.096;2023-11-18T01:52:43;101996.78;;;9.71;100.00
66164;BME280;52962;51.088;3.096;2023-11-18T01:55:13;101986.34;;;9.73;100.00
66164;BME280;52962;51.088;3.096;2023-11-18T01:57:41;101985.38;;;9.71;100.00
66164;BME280;52962;51.088;3.096;2023-11-18T02:00:12;101976.84;;;9.76;100.00
66164;BME280;52962;51.088;3.096;2023-11-18T02:02:45;101980.44;;;9.78;100.00
66164;BME280;52962;51.088;3.096;2023-11-18T02:05:14;101978.63;;;9.77;100.00
66164;BME280;52962;51.088;3.096;2023-11-18T02:07:46;101972.53;;;9.78;100.00
66164;BME280;52962;51.088;3.096;2023-11-18T02:10:15;101973.56;;;9.82;100.00
66164;BME280;52962;51.088;3.096;2023-11-18T02:12:48;101975.44;;;9.84;100.00
66164;BME280;52962;51.088;3.096;2023-11-18T02:15:21;101975.44;;;9.84;100.00
66164;BME280;52962;51.088;3.096;2023-11-18T02:17:52;101965.03;;;9.88;100.00
66164;BME280;52962;51.088;3.096;2023-11-18T02:20:21;101963.34;;;9.90;100.00
66164;BME280;52962;51.088;3.096;2023-11-18T02:22:52;101953.78;;;9.92;100.00
66164;BME280;52962;51.088;3.096;2023-11-18T02:25:24;101949.44;;;9.92;100.00
66164;BME280;52962;51.088;3.096;2023-11-18T02:27:55;101937.16;;;9.93;100.00
66164;BME280;52962;51.088;3.096;2023-11-18T02:30:24;101936.34;;;9.94;100.00
66164;BME280;52962;51.088;3.096;2023-11-18T02:32:58;101926.53;;;9.90;100.00
66164;BME280;52962;51.088;3.096;2023-11-18T02:35:31;101923.06;;;9.91;100.00
66164;BME280;52962;51.088;3.096;2023-11-18T02:38:03;101920.28;;;9.88;100.00
66164;BME280;52962;51.088;3.096;2023-11-18T02:40:37;101917.66;;;9.88;100.00
66164;BME280;52962;51.088;3.096;2023-11-18T02:43:09;101910.78;;;9.91;100.00
66164;BME280;52962;51.088;3.096;2023-11-18T02:45:38;101915.28;;;9.94;100.00
66164;BME280;52962;51.088;3.096;2023-11-18T02:48:09;101912.66;;;9.94;100.00
66164;BME280;52962;51.088;3.096;2023-11-18T02:50:37;101904.81;;;9.95;100.00
66164;BME280;52962;51.088;3.096;2023-11-18T02:53:08;101906.63;;;9.96;100.00
66164;BME280;52962;51.088;3.096;2023-11-18T02:55:37;101905.84;;;9.99;100.00
66164;BME280;52962;51.088;3.096;2023-11-18T02:58:10;101897.09;;;10.00;100.00
66164;BME280;52962;51.088;3.096;2023-11-18T03:00:39;101903.25;;;10.00;100.00
66164;BME280;52962;51.088;3.096;2023-11-18T03:03:07;101899.75;;;10.00;100.00
66164;BME280;52962;51.088;3.096;2023-11-18T03:05:36;101908.59;;;10.02;100.00
66164;BME280;52962;51.088;3.096;2023-11-18T03:08:04;101911.22;;;10.02;100.00
66164;BME280;52962;51.088;3.096;2023-11-18T03:10:35;101904.16;;;10.01;100.00
66164;BME280;52962;51.088;3.096;2023-11-18T03:13:04;101900.69;;;10.02;100.00
66164;BME280;52962;51.088;3.096;2023-11-18T03:15:34;101896.25;;;10.01;100.00
66164;BME280;52962;51.088;3.096;2023-11-18T03:18:04;101898.78;;;9.98;100.00
66164;BME280;52962;51.088;3.096;2023-11-18T03:20:33;101898.06;;;10.02;100.00
66164;BME280;52962;51.088;3.096;2023-11-18T03:23:02;101902.50;;;10.03;100.00
66164;BME280;52962;51.088;3.096;2023-11-18T03:25:36;101905.91;;;10.00;100.00
66164;BME280;52962;51.088;3.096;2023-11-18T03:28:05;101898.91;;;10.01;100.00
66164;BME280;52962;51.088;3.096;2023-11-18T03:30:36;101884.91;;;10.02;100.00
66164;BME280;52962;51.088;3.096;2023-11-18T03:33:04;101877.44;;;9.90;100.00
66164;BME280;52962;51.088;3.096;2023-11-18T03:35:37;101867.84;;;9.92;100.00
66164;BME280;52962;51.088;3.096;2023-11-18T03:38:06;101865.28;;;9.94;100.00
66164;BME280;52962;51.088;3.096;2023-11-18T03:40:35;101860.09;;;9.95;100.00
66164;BME280;52962;51.088;3.096;2023-11-18T03:43:03;101866.31;;;9.97;100.00
66164;BME280;52962;51.088;3.096;2023-11-18T03:45:31;101848.59;;;9.93;100.00
66164;BME280;52962;51.088;3.096;2023-11-18T03:48:00;101851.41;;;9.98;100.00
66164;BME280;52962;51.088;3.096;2023-11-18T03:50:30;101835.63;;;9.98;100.00
66164;BME280;52962;51.088;3.096;2023-11-18T03:52:58;101839.09;;;9.97;100.00
66164;BME280;52962;51.088;3.096;2023-11-18T03:55:26;101832.16;;;9.99;100.00
66164;BME280;52962;51.088;3.096;2023-11-18T03:57:54;101835.75;;;10.01;100.00
66164;BME280;52962;51.088;3.096;2023-11-18T04:00:24;101821.56;;;9.97;100.00
66164;BME280;52962;51.088;3.096;2023-11-18T04:02:56;101816.38;;;9.99;100.00
66164;BME280;52962;51.088;3.096;2023-11-18T04:05:26;101804.16;;;10.01;100.00
66164;BME280;52962;51.088;3.096;2023-11-18T04:07:54;101811.09;;;9.99;100.00
66164;BME280;52962;51.088;3.096;2023-11-18T04:10:22;101804.81;;;9.95;100.00
66164;BME280;52962;51.088;3.096;2023-11-18T04:12:51;101813.66;;;9.97;100.00
66164;BME280;52962;51.088;3.096;2023-11-18T04:15:19;101820.72;;;9.98;100.00
66164;BME280;52962;51.088;3.096;2023-11-18T04:17:48;101819.94;;;10.01;100.00
66164;BME280;52962;51.088;3.096;2023-11-18T04:20:16;101818.16;;;10.00;100.00
66164;BME280;52962;51.088;3.096;2023-11-18T04:22:46;101805.84;;;9.99;100.00
66164;BME280;52962;51.088;3.096;2023-11-18T04:25:15;101798.97;;;10.02;100.00
66164;BME280;52962;51.088;3.096;2023-11-18T04:27:44;101795.31;;;9.99;100.00
66164;BME280;52962;51.088;3.096;2023-11-18T04:30:13;101801.53;;;10.01;100.00
66164;BME280;52962;51.088;3.096;2023-11-18T04:32:41;101805.97;;;10.02;100.00
66164;BME280;52962;51.088;3.096;2023-11-18T04:35:10;101814.69;;;10.01;100.00
66164;BME280;52962;51.088;3.096;2023-11-18T04:37:39;101810.31;;;10.01;100.00
66164;BME280;52962;51.088;3.096;2023-11-18T04:40:12;101805.97;;;10.02;100.00
66164;BME280;52962;51.088;3.096;2023-11-18T04:42:40;101809.41;;;10.01;100.00
66164;BME280;52962;51.088;3.096;2023-11-18T04:45:11;101800.75;;;10.03;100.00
66164;BME280;52962;51.088;3.096;2023-11-18T04:47:41;101793.75;;;10.04;100.00
66164;BME280;52962;51.088;3.096;2023-11-18T04:50:12;101784.19;;;10.06;100.00
66164;BME280;52962;51.088;3.096;2023-11-18T04:52:40;101772.69;;;10.04;100.00
66164;BME280;52962;51.088;3.096;2023-11-18T04:55:08;101772.03;;;10.09;100.00
66164;BME280;52962;51.088;3.096;2023-11-18T04:57:42;101768.44;;;10.07;100.00
66164;BME280;52962;51.088;3.096;2023-11-18T05:00:11;101755.34;;;10.09;100.00
66164;BME280;52962;51.088;3.096;2023-11-18T05:02:43;101750.06;;;10.09;100.00
66164;BME280;52962;51.088;3.096;2023-11-18T05:05:14;101751.81;;;10.08;100.00
66164;BME280;52962;51.088;3.096;2023-11-18T05:07:43;101750.19;;;10.12;100.00
66164;BME280;52962;51.088;3.096;2023-11-18T05:10:11;101743.13;;;10.11;100.00
66164;BME280;52962;51.088;3.096;2023-11-18T05:12:41;101745.81;;;10.12;100.00
66164;BME280;52962;51.088;3.096;2023-11-18T05:15:10;101738.72;;;10.10;100.00
66164;BME280;52962;51.088;3.096;2023-11-18T05:17:39;101720.41;;;10.13;100.00
66164;BME280;52962;51.088;3.096;2023-11-18T05:20:08;101718.72;;;10.15;100.00
66164;BME280;52962;51.088;3.096;2023-11-18T05:22:38;101713.56;;;10.18;100.00
66164;BME280;52962;51.088;3.096;2023-11-18T05:25:06;101724.81;;;10.14;100.00
66164;BME280;52962;51.088;3.096;2023-11-18T05:27:37;101731.16;;;10.19;100.00
66164;BME280;52962;51.088;3.096;2023-11-18T05:30:09;101720.63;;;10.19;100.00
66164;BME280;52962;51.088;3.096;2023-11-18T05:32:38;101705.81;;;10.21;100.00
66164;BME280;52962;51.088;3.096;2023-11-18T05:35:07;101708.56;;;10.24;100.00
66164;BME280;52962;51.088;3.096;2023-11-18T05:37:39;101706.88;;;10.26;100.00
66164;BME280;52962;51.088;3.096;2023-11-18T05:40:08;101707.75;;;10.27;100.00
66164;BME280;52962;51.088;3.096;2023-11-18T05:42:38;101695.53;;;10.29;100.00
66164;BME280;52962;51.088;3.096;2023-11-18T05:45:10;101685.81;;;10.26;100.00
66164;BME280;52962;51.088;3.096;2023-11-18T05:47:44;101685.81;;;10.26;100.00
66164;BME280;52962;51.088;3.096;2023-11-18T05:50:13;101696.44;;;10.29;100.00
66164;BME280;52962;51.088;3.096;2023-11-18T05:52:43;101695.38;;;10.24;100.00
66164;BME280;52962;51.088;3.096;2023-11-18T05:55:11;101694.53;;;10.25;100.00
66164;BME280;52962;51.088;3.096;2023-11-18T05:57:39;101696.38;;;10.28;100.00
66164;BME280;52962;51.088;3.096;2023-11-18T06:00:10;101693.75;;;10.28;100.00
66164;BME280;52962;51.088;3.096;2023-11-18T06:02:51;101684.22;;;10.31;100.00
66164;BME280;52962;51.088;3.096;2023-11-18T06:05:20;101675.50;;;10.32;100.00
66164;BME280;52962;51.088;3.096;2023-11-18T06:07:50;101673.13;;;10.40;100.00
66164;BME280;52962;51.088;3.096;2023-11-18T06:10:18;101681.16;;;10.44;100.00
66164;BME280;52962;51.088;3.096;2023-11-18T06:12:47;101687.19;;;10.42;100.00
66164;BME280;52962;51.088;3.096;2023-11-18T06:15:17;101683.03;;;10.48;100.00
66164;BME280;52962;51.088;3.096;2023-11-18T06:17:45;101674.09;;;10.43;100.00
66164;BME280;52962;51.088;3.096;2023-11-18T06:20:14;101694.19;;;10.40;100.00
66164;BME280;52962;51.088;3.096;2023-11-18T06:22:44;101695.38;;;10.49;100.00
66164;BME280;52962;51.088;3.096;2023-11-18T06:25:12;101686.41;;;10.44;100.00
66164;BME280;52962;51.088;3.096;2023-11-18T06:27:40;101679.25;;;10.40;100.00
66164;BME280;52962;51.088;3.096;2023-11-18T06:30:10;101682.81;;;10.42;100.00
66164;BME280;52962;51.088;3.096;2023-11-18T06:32:40;101689.03;;;10.44;100.00
66164;BME280;52962;51.088;3.096;2023-11-18T06:35:09;101681.03;;;10.41;100.00
66164;BME280;52962;51.088;3.096;2023-11-18T06:37:38;101674.09;;;10.43;100.00
66164;BME280;52962;51.088;3.096;2023-11-18T06:40:07;101662.44;;;10.35;100.00
66164;BME280;52962;51.088;3.096;2023-11-18T06:42:43;101661.59;;;10.36;100.00
66164;BME280;52962;51.088;3.096;2023-11-18T06:45:14;101652.75;;;10.34;100.00
66164;BME280;52962;51.088;3.096;2023-11-18T06:47:45;101649.94;;;10.30;100.00
66164;BME280;52962;51.088;3.096;2023-11-18T06:50:13;101649.06;;;10.29;100.00
66164;BME280;52962;51.088;3.096;2023-11-18T06:52:43;101642.00;;;10.28;100.00
66164;BME280;52962;51.088;3.096;2023-11-18T06:55:15;101633.22;;;10.28;100.00
66164;BME280;52962;51.088;3.096;2023-11-18T06:57:43;101636.72;;;10.28;100.00
66164;BME280;52962;51.088;3.096;2023-11-18T07:00:14;101623.47;;;10.25;100.00
66164;BME280;52962;51.088;3.096;2023-11-18T07:02:42;101621.69;;;10.24;100.00
66164;BME280;52962;51.088;3.096;2023-11-18T07:05:12;101608.50;;;10.24;100.00
66164;BME280;52962;51.088;3.096;2023-11-18T07:07:42;101605.94;;;10.26;100.00
66164;BME280;52962;51.088;3.096;2023-11-18T07:10:11;101597.09;;;10.24;100.00
66164;BME280;52962;51.088;3.096;2023-11-18T07:12:40;101595.41;;;10.26;100.00
66164;BME280;52962;51.088;3.096;2023-11-18T07:15:09;101594.63;;;10.28;100.00
66164;BME280;52962;51.088;3.096;2023-11-18T07:17:38;101591.94;;;10.27;100.00
66164;BME280;52962;51.088;3.096;2023-11-18T07:20:07;101587.56;;;10.27;100.00
66164;BME280;52962;51.088;3.096;2023-11-18T07:22:40;101582.28;;;10.27;100.00
66164;BME280;52962;51.088;3.096;2023-11-18T07:25:09;101584.94;;;10.27;100.00
66164;BME280;52962;51.088;3.096;2023-11-18T07:27:38;101573.56;;;10.28;100.00
66164;BME280;52962;51.088;3.096;2023-11-18T07:30:06;101550.50;;;10.21;100.00
66164;BME280;52962;51.088;3.096;2023-11-18T07:32:38;101554.22;;;10.28;100.00
66164;BME280;52962;51.088;3.096;2023-11-18T07:35:07;101563.97;;;10.30;100.00
66164;BME280;52962;51.088;3.096;2023-11-18T07:37:37;101570.19;;;10.32;100.00
66164;BME280;52962;51.088;3.096;2023-11-18T07:40:07;101582.41;;;10.30;100.00
66164;BME280;52962;51.088;3.096;2023-11-18T07:42:39;101576.34;;;10.33;100.00
66164;BME280;52962;51.088;3.096;2023-11-18T07:45:07;101561.38;;;10.32;100.00
66164;BME280;52962;51.088;3.096;2023-11-18T07:47:44;101564.97;;;10.34;100.00
66164;BME280;52962;51.088;3.096;2023-11-18T07:50:15;101565.75;;;10.31;100.00
66164;BME280;52962;51.088;3.096;2023-11-18T07:52:44;101568.53;;;10.36;100.00
66164;BME280;52962;51.088;3.096;2023-11-18T07:55:14;101569.53;;;10.39;100.00
66164;BME280;52962;51.088;3.096;2023-11-18T07:57:42;101566.03;;;10.40;100.00
66164;BME280;52962;51.088;3.096;2023-11-18T08:00:12;101563.50;;;10.43;100.00
66164;BME280;52962;51.088;3.096;2023-11-18T08:02:42;101558.19;;;10.42;100.00
66164;BME280;52962;51.088;3.096;2023-11-18T08:05:11;101559.22;;;10.47;100.00
66164;BME280;52962;51.088;3.096;2023-11-18T08:07:42;101558.31;;;10.46;100.00
66164;BME280;52962;51.088;3.096;2023-11-18T08:10:13;101565.38;;;10.47;100.00
66164;BME280;52962;51.088;3.096;2023-11-18T08:12:47;101555.72;;;10.48;100.00
66164;BME280;52962;51.088;3.096;2023-11-18T08:15:15;101559.47;;;10.55;100.00
66164;BME280;52962;51.088;3.096;2023-11-18T08:17:43;101549.81;;;10.55;100.00
66164;BME280;52962;51.088;3.096;2023-11-18T08:20:12;101551.69;;;10.59;100.00
66164;BME280;52962;51.088;3.096;2023-11-18T08:22:42;101537.66;;;10.59;100.00
66164;BME280;52962;51.088;3.096;2023-11-18T08:25:11;101531.66;;;10.64;100.00
66164;BME280;52962;51.088;3.096;2023-11-18T08:27:41;101537.75;;;10.62;100.00
66164;BME280;52962;51.088;3.096;2023-11-18T08:30:10;101507.06;;;10.64;100.00
66164;BME280;52962;51.088;3.096;2023-11-18T08:32:40;101498.97;;;10.58;100.00
66164;BME280;52962;51.088;3.096;2023-11-18T08:35:11;101493.06;;;10.65;100.00
66164;BME280;52962;51.088;3.096;2023-11-18T08:37:43;101498.38;;;10.66;100.00
66164;BME280;52962;51.088;3.096;2023-11-18T08:40:12;101479.94;;;10.66;100.00
66164;BME280;52962;51.088;3.096;2023-11-18T08:42:45;101467.66;;;10.67;100.00
66164;BME280;52962;51.088;3.096;2023-11-18T08:45:18;101485.34;;;10.71;100.00
66164;BME280;52962;51.088;3.096;2023-11-18T08:47:50;101487.13;;;10.72;100.00
66164;BME280;52962;51.088;3.096;2023-11-18T08:50:20;101472.22;;;10.72;100.00
66164;BME280;52962;51.088;3.096;2023-11-18T08:52:52;101473.19;;;10.76;100.00
66164;BME280;52962;51.088;3.096;2023-11-18T08:55:27;101469.72;;;10.77;100.00
66164;BME280;52962;51.088;3.096;2023-11-18T08:58:11;101459.19;;;10.77;100.00
66164;BME280;52962;51.088;3.096;2023-11-18T09:00:56;101458.25;;;10.75;100.00
66164;BME280;52962;51.088;3.096;2023-11-18T09:03:34;101459.84;;;10.70;100.00
66164;BME280;52962;51.088;3.096;2023-11-18T09:06:05;101445.16;;;10.78;100.00
66164;BME280;52962;51.088;3.096;2023-11-18T09:08:45;101454.72;;;10.74;100.00
66164;BME280;52962;51.088;3.096;2023-11-18T09:11:20;101439.78;;;10.75;100.00
66164;BME280;52962;51.088;3.096;2023-11-18T09:13:51;101423.22;;;10.79;100.00
66164;BME280;52962;51.088;3.096;2023-11-18T09:16:21;101423.34;;;10.84;100.00
66164;BME280;52962;51.088;3.096;2023-11-18T09:18:49;101416.22;;;10.79;100.00
66164;BME280;52962;51.088;3.096;2023-11-18T09:21:18;101418.81;;;10.78;100.00
66164;BME280;52962;51.088;3.096;2023-11-18T09:23:52;101392.47;;;10.78;100.00
66164;BME280;52962;51.088;3.096;2023-11-18T09:26:23;101387.38;;;10.84;100.00
66164;BME280;52962;51.088;3.096;2023-11-18T09:28:54;101387.28;;;10.81;100.00
66164;BME280;52962;51.088;3.096;2023-11-18T09:31:24;101382.91;;;10.81;100.00
66164;BME280;52962;51.088;3.096;2023-11-18T09:33:52;101384.00;;;10.90;100.00
66164;BME280;52962;51.088;3.096;2023-11-18T09:36:20;101371.72;;;10.90;100.00
66164;BME280;52962;51.088;3.096;2023-11-18T09:38:49;101384.84;;;10.89;100.00
66164;BME280;52962;51.088;3.096;2023-11-18T09:41:22;101380.47;;;10.89;100.00
66164;BME280;52962;51.088;3.096;2023-11-18T09:43:52;101373.44;;;10.88;100.00
66164;BME280;52962;51.088;3.096;2023-11-18T09:46:26;101367.38;;;10.92;100.00
66164;BME280;52962;51.088;3.096;2023-11-18T09:49:06;101363.78;;;10.89;100.00
66164;BME280;52962;51.088;3.096;2023-11-18T09:51:44;101361.31;;;10.95;100.00
66164;BME280;52962;51.088;3.096;2023-11-18T09:54:18;101367.53;;;10.97;100.00
66164;BME280;52962;51.088;3.096;2023-11-18T09:56:52;101363.13;;;10.97;100.00
66164;BME280;52962;51.088;3.096;2023-11-18T09:59:32;101361.44;;;10.99;100.00
66164;BME280;52962;51.088;3.096;2023-11-18T10:02:12;101347.41;;;11.00;100.00
66164;BME280;52962;51.088;3.096;2023-11-18T10:04:41;101340.59;;;11.08;100.00
66164;BME280;52962;51.088;3.096;2023-11-18T10:07:14;101343.31;;;11.11;100.00
66164;BME280;52962;51.088;3.096;2023-11-18T10:09:46;101332.81;;;11.13;100.00
66164;BME280;52962;51.088;3.096;2023-11-18T10:12:16;101323.84;;;11.06;100.00
66164;BME280;52962;51.088;3.096;2023-11-18T10:14:50;101323.94;;;11.09;100.00
66164;BME280;52962;51.088;3.096;2023-11-18T10:17:20;101339.72;;;11.08;100.00
66164;BME280;52962;51.088;3.096;2023-11-18T10:19:53;101341.56;;;11.12;100.00
66164;BME280;52962;51.088;3.096;2023-11-18T10:22:24;101343.34;;;11.13;100.00
66164;BME280;52962;51.088;3.096;2023-11-18T10:24:53;101327.66;;;11.18;100.00
66164;BME280;52962;51.088;3.096;2023-11-18T10:27:26;101326.66;;;11.12;100.00
66164;BME280;52962;51.088;3.096;2023-11-18T10:29:55;101310.00;;;11.15;100.00
66164;BME280;52962;51.088;3.096;2023-11-18T10:32:26;101302.22;;;11.20;100.00
66164;BME280;52962;51.088;3.096;2023-11-18T10:34:56;101302.22;;;11.20;100.00
66164;BME280;52962;51.088;3.096;2023-11-18T10:37:25;101293.47;;;11.21;100.00
66164;BME280;52962;51.088;3.096;2023-11-18T10:39:57;101281.13;;;11.20;100.00
66164;BME280;52962;51.088;3.096;2023-11-18T10:42:27;101268.72;;;11.16;100.00
66164;BME280;52962;51.088;3.096;2023-11-18T10:44:57;101255.50;;;11.14;100.00
66164;BME280;52962;51.088;3.096;2023-11-18T10:47:27;101257.28;;;11.15;100.00
66164;BME280;52962;51.088;3.096;2023-11-18T10:49:56;101260.78;;;11.14;100.00
66164;BME280;52962;51.088;3.096;2023-11-18T10:52:25;101251.28;;;11.21;100.00
66164;BME280;52962;51.088;3.096;2023-11-18T10:54:57;101243.53;;;11.27;100.00
66164;BME280;52962;51.088;3.096;2023-11-18T10:57:34;101242.66;;;11.28;100.00
66164;BME280;52962;51.088;3.096;2023-11-18T11:00:03;101247.22;;;11.35;100.00
66164;BME280;52962;51.088;3.096;2023-11-18T11:02:42;101245.59;;;11.40;100.00
66164;BME280;52962;51.088;3.096;2023-11-18T11:05:11;101235.13;;;11.43;100.00
66164;BME280;52962;51.088;3.096;2023-11-18T11:07:48;101211.50;;;11.49;100.00
66164;BME280;52962;51.088;3.096;2023-11-18T11:10:17;101219.44;;;11.51;100.00
66164;BME280;52962;51.088;3.096;2023-11-18T11:12:54;101212.31;;;11.46;100.00
66164;BME280;52962;51.088;3.096;2023-11-18T11:15:29;101214.22;;;11.54;100.00
66164;BME280;52962;51.088;3.096;2023-11-18T11:18:20;101201.97;;;11.56;100.00
66164;BME280;52962;51.088;3.096;2023-11-18T11:21:03;101197.56;;;11.56;100.00
66164;BME280;52962;51.088;3.096;2023-11-18T11:23:45;101169.34;;;11.52;100.00
66164;BME280;52962;51.088;3.096;2023-11-18T11:26:31;101172.16;;;11.60;100.00
66164;BME280;52962;51.088;3.096;2023-11-18T11:29:25;101171.34;;;11.62;100.00
66164;BME280;52962;51.088;3.096;2023-11-18T11:32:02;101166.00;;;11.59;100.00
66164;BME280;52962;51.088;3.096;2023-11-18T11:34:37;101165.00;;;11.54;100.00
66164;BME280;52962;51.088;3.096;2023-11-18T11:37:11;101158.66;;;11.46;100.00
66164;BME280;52962;51.088;3.096;2023-11-18T11:39:43;101156.31;;;11.58;100.00
66164;BME280;52962;51.088;3.096;2023-11-18T11:42:15;101151.09;;;11.61;100.00
66164;BME280;52962;51.088;3.096;2023-11-18T11:44:48;101145.09;;;11.68;100.00
66164;BME280;52962;51.088;3.096;2023-11-18T11:47:20;101140.47;;;11.58;100.00
66164;BME280;52962;51.088;3.096;2023-11-18T11:49:55;101121.94;;;11.55;100.00
66164;BME280;52962;51.088;3.096;2023-11-18T11:52:30;101110.53;;;11.56;100.00
66164;BME280;52962;51.088;3.096;2023-11-18T11:55:05;101111.34;;;11.52;100.00
66164;BME280;52962;51.088;3.096;2023-11-18T11:57:39;101108.16;;;11.68;100.00
66164;BME280;52962;51.088;3.096;2023-11-18T12:00:10;101108.38;;;11.77;100.00
66164;BME280;52962;51.088;3.096;2023-11-18T12:02:50;101111.16;;;11.85;100.00
66164;BME280;52962;51.088;3.096;2023-11-18T12:05:25;101106.75;;;11.86;100.00
66164;BME280;52962;51.088;3.096;2023-11-18T12:07:55;101103.38;;;11.93;100.00
66164;BME280;52962;51.088;3.096;2023-11-18T12:10:26;101101.38;;;11.79;100.00
66164;BME280;52962;51.088;3.096;2023-11-18T12:13:06;101095.50;;;11.94;100.00
66164;BME280;52962;51.088;3.096;2023-11-18T12:15:48;101089.09;;;11.82;100.00
66164;BME280;52962;51.088;3.096;2023-11-18T12:18:22;101089.03;;;11.78;100.00
66164;BME280;52962;51.088;3.096;2023-11-18T12:20:52;101074.06;;;11.77;100.00
66164;BME280;52962;51.088;3.096;2023-11-18T12:23:25;101073.13;;;11.75;100.00
66164;BME280;52962;51.088;3.096;2023-11-18T12:25:54;101064.50;;;11.83;100.00
66164;BME280;52962;51.088;3.096;2023-11-18T12:28:27;101069.81;;;11.86;100.00
66164;BME280;52962;51.088;3.096;2023-11-18T12:30:58;101068.50;;;12.09;100.00
66164;BME280;52962;51.088;3.096;2023-11-18T12:34:00;101057.03;;;12.07;100.00
66164;BME280;52962;51.088;3.096;2023-11-18T12:43:00;101022.44;;;11.92;100.00
66164;BME280;52962;51.088;3.096;2023-11-18T12:48:44;101025.22;;;12.01;100.00
66164;BME280;52962;51.088;3.096;2023-11-18T12:51:14;101027.94;;;12.04;100.00
66164;BME280;52962;51.088;3.096;2023-11-18T12:53:50;101019.25;;;12.11;100.00
66164;BME280;52962;51.088;3.096;2023-11-18T12:56:21;101007.66;;;12.01;100.00
66164;BME280;52962;51.088;3.096;2023-11-18T12:58:50;101008.75;;;12.14;100.00
66164;BME280;52962;51.088;3.096;2023-11-18T13:01:23;101006.31;;;12.26;100.00
66164;BME280;52962;51.088;3.096;2023-11-18T13:03:54;101007.16;;;12.25;100.00
66164;BME280;52962;51.088;3.096;2023-11-18T13:06:22;101005.47;;;12.29;100.00
66164;BME280;52962;51.088;3.096;2023-11-18T13:08:57;101002.09;;;12.37;100.00
66164;BME280;52962;51.088;3.096;2023-11-18T13:11:26;100994.16;;;12.37;100.00